createdAt,value
2023-03-04T00:01:12.720Z,6.13
2023-03-04T00:06:15.422Z,5.40
2023-03-04T00:11:19.555Z,7.67
2023-03-04T00:16:22.309Z,7.20
2023-03-04T00:21:25.416Z,8.10
2023-03-04T00:26:29.466Z,9.77
2023-03-04T00:31:32.345Z,7.93
2023-03-04T00:36:35.157Z,7.80
2023-03-04T00:41:39.306Z,8.63
2023-03-04T00:46:42.030Z,9.93
2023-03-04T00:51:44.827Z,7.13
2023-03-04T00:56:48.934Z,9.03
2023-03-04T01:01:51.706Z,11.90
2023-03-04T01:06:54.486Z,11.03
2023-03-04T01:11:58.783Z,7.83
2023-03-04T01:17:01.542Z,12.73
2023-03-04T01:22:04.303Z,11.83
2023-03-04T01:27:08.431Z,10.43
2023-03-04T01:32:11.215Z,10.23
2023-03-04T01:37:14.629Z,7.90
2023-03-04T01:42:21.432Z,8.67
2023-03-04T01:47:25.697Z,9.07
2023-03-04T01:52:28.933Z,10.83
2023-03-04T01:57:36.331Z,10.63
2023-03-04T02:02:39.118Z,10.63
2023-03-04T02:07:42.089Z,9.93
2023-03-04T02:12:47.136Z,10.10
2023-03-04T02:17:50.157Z,9.80
2023-03-04T02:22:59.192Z,11.53
2023-03-04T02:28:03.901Z,10.87
2023-03-04T02:33:07.355Z,9.40
2023-03-04T02:38:11.197Z,8.37
2023-03-04T02:43:15.700Z,9.60
2023-03-04T02:48:21.882Z,8.90
2023-03-04T02:53:25.345Z,9.43
2023-03-04T02:58:30.491Z,8.43
2023-03-04T03:03:35.828Z,12.07
2023-03-04T03:08:38.660Z,9.67
2023-03-04T03:13:42.984Z,10.03
2023-03-04T03:18:45.856Z,14.77
2023-03-04T03:23:48.669Z,11.13
2023-03-04T03:28:52.941Z,12.43
2023-03-04T03:33:57.204Z,10.57
2023-03-04T03:39:00.181Z,8.60
2023-03-04T03:44:04.335Z,9.23
2023-03-04T03:49:07.018Z,9.50
2023-03-04T03:54:09.936Z,12.07
2023-03-04T03:59:13.986Z,10.80
2023-03-04T04:04:16.688Z,11.53
2023-03-04T04:09:19.396Z,11.27
2023-03-04T04:14:23.453Z,11.80
2023-03-04T04:19:26.277Z,10.10
2023-03-04T04:24:28.984Z,12.77
2023-03-04T04:29:33.453Z,13.47
2023-03-04T04:34:36.817Z,9.20
2023-03-04T04:39:39.611Z,10.60
2023-03-04T04:44:43.679Z,12.13
2023-03-04T04:49:46.406Z,11.33
2023-03-04T04:54:49.156Z,12.60
2023-03-04T04:59:53.277Z,11.53
2023-03-04T05:04:55.969Z,11.23
2023-03-04T05:09:58.655Z,10.50
2023-03-04T05:15:02.842Z,13.20
2023-03-04T05:20:07.126Z,9.37
2023-03-04T05:25:10.762Z,9.60
2023-03-04T05:30:15.280Z,12.80
2023-03-04T05:35:18.355Z,14.97
2023-03-04T05:40:21.144Z,15.03
2023-03-04T05:45:25.533Z,8.90
2023-03-04T05:50:28.244Z,10.23
2023-03-04T05:55:31.549Z,9.13
2023-03-04T06:00:35.610Z,9.33
2023-03-04T06:05:38.325Z,13.53
2023-03-04T06:10:41.979Z,9.30
2023-03-04T06:15:46.046Z,9.07
2023-03-04T06:20:48.785Z,17.23
2023-03-04T06:25:53.460Z,11.47
2023-03-04T06:30:58.283Z,10.53
2023-03-04T06:36:01.094Z,17.00
2023-03-04T06:41:08.606Z,7.63
2023-03-04T06:46:12.672Z,9.17
2023-03-04T06:51:15.536Z,7.83
2023-03-04T06:56:18.407Z,7.27
2023-03-04T07:01:24.336Z,5.63
2023-03-04T07:06:28.679Z,9.07
2023-03-04T07:11:31.395Z,10.10
2023-03-04T07:16:35.556Z,9.77
2023-03-04T07:21:38.799Z,7.40
2023-03-04T07:26:41.613Z,8.17
2023-03-04T07:31:45.732Z,12.30
2023-03-04T07:36:48.468Z,7.53
2023-03-04T07:41:51.269Z,12.30
2023-03-04T07:46:55.321Z,10.67
2023-03-04T07:51:58.082Z,10.40
2023-03-04T07:57:00.899Z,8.30
2023-03-04T08:02:05.179Z,6.50
2023-03-04T08:07:07.885Z,7.07
2023-03-04T08:12:10.663Z,8.00
2023-03-04T08:17:15.814Z,8.73
2023-03-04T08:22:18.566Z,8.30
2023-03-04T08:27:21.317Z,8.03
2023-03-04T08:32:25.443Z,7.13
2023-03-04T08:37:28.273Z,6.50
2023-03-04T08:42:31.110Z,7.70
2023-03-04T08:47:35.198Z,11.23
2023-03-04T08:52:37.957Z,7.20
2023-03-04T08:57:40.654Z,6.80
2023-03-04T09:02:44.734Z,6.03
2023-03-04T09:07:48.190Z,4.90
2023-03-04T09:12:51.516Z,5.37
2023-03-04T09:17:55.543Z,4.07
2023-03-04T09:22:58.448Z,5.30
2023-03-04T09:28:01.267Z,7.87
2023-03-04T09:33:05.399Z,4.10
2023-03-04T09:38:08.800Z,7.03
2023-03-04T09:43:19.413Z,4.17
2023-03-04T09:48:26.019Z,5.60
2023-03-04T09:53:36.393Z,4.90
2023-03-04T09:58:46.691Z,7.20
2023-03-04T10:03:53.171Z,6.20
2023-03-04T10:08:59.061Z,7.30
2023-03-04T10:14:06.312Z,6.13
2023-03-04T10:19:25.984Z,4.53
2023-03-04T10:24:30.191Z,2.97
2023-03-04T10:29:34.241Z,6.10
2023-03-04T10:34:38.295Z,3.60
2023-03-04T10:39:42.371Z,6.03
2023-03-04T10:44:52.600Z,3.43
2023-03-04T10:49:57.970Z,6.07
2023-03-04T10:55:02.356Z,4.07
2023-03-04T11:00:23.395Z,3.50
2023-03-04T11:05:27.584Z,3.27
2023-03-04T11:10:32.490Z,2.70
2023-03-04T11:15:51.384Z,3.30
2023-03-04T11:20:56.715Z,3.90
2023-03-04T11:26:02.325Z,5.57
2023-03-04T11:31:07.616Z,2.77
2023-03-04T11:36:24.445Z,1.70
2023-03-04T11:41:32.057Z,2.43
2023-03-04T11:46:55.554Z,2.33
2023-03-04T11:52:06.707Z,1.57
2023-03-04T11:57:15.209Z,1.40
2023-03-04T12:02:20.367Z,2.00
2023-03-04T12:07:44.494Z,2.90
2023-03-04T12:12:57.941Z,2.10
2023-03-04T12:18:09.165Z,1.20
2023-03-04T12:23:32.272Z,2.07
2023-03-04T12:28:44.206Z,2.77
2023-03-04T12:33:56.689Z,4.27
2023-03-04T12:39:16.159Z,2.40
2023-03-04T12:44:20.836Z,2.77
2023-03-04T12:49:35.763Z,4.37
2023-03-04T12:54:41.781Z,5.37
2023-03-04T12:59:48.073Z,2.77
2023-03-04T13:04:54.746Z,1.90
2023-03-04T13:10:02.750Z,2.83
2023-03-04T13:15:36.805Z,2.83
2023-03-04T13:20:40.685Z,3.37
2023-03-04T13:25:45.281Z,2.40
2023-03-04T13:31:20.406Z,2.87
2023-03-04T13:36:59.247Z,3.33
2023-03-04T13:42:05.056Z,1.50
2023-03-04T13:47:15.759Z,2.00
2023-03-04T13:52:40.102Z,3.58
2023-03-04T13:57:51.166Z,1.33
2023-03-04T14:02:54.241Z,4.50
2023-03-04T14:07:57.104Z,3.23
2023-03-04T14:13:01.820Z,6.60
2023-03-04T14:18:06.148Z,4.40
2023-03-04T14:23:24.960Z,5.60
2023-03-04T14:28:29.109Z,5.07
2023-03-04T14:33:32.491Z,5.80
2023-03-04T14:38:38.016Z,1.77
2023-03-04T14:43:45.851Z,4.27
2023-03-04T14:48:51.295Z,4.90
2023-03-04T14:53:57.848Z,4.97
2023-03-04T14:59:02.497Z,4.87
2023-03-04T15:04:06.906Z,4.03
2023-03-04T15:09:19.796Z,2.93
2023-03-04T15:14:44.506Z,3.50
2023-03-04T15:19:47.212Z,3.40
2023-03-04T15:24:50.099Z,7.00
2023-03-04T15:29:58.872Z,3.30
2023-03-04T15:35:01.785Z,3.40
2023-03-04T15:40:09.090Z,2.80
2023-03-04T15:45:22.345Z,1.73
2023-03-04T15:50:29.247Z,3.37
2023-03-04T15:55:33.445Z,1.40
2023-03-04T16:00:38.875Z,1.73
2023-03-04T16:05:41.653Z,2.00
2023-03-04T16:10:45.195Z,2.07
2023-03-04T16:15:49.952Z,2.23
2023-03-04T16:20:53.036Z,3.03
2023-03-04T16:25:57.603Z,4.53
2023-03-04T16:31:02.179Z,3.00
2023-03-04T16:36:07.116Z,2.50
2023-03-04T16:41:13.004Z,6.67
2023-03-04T16:46:17.279Z,4.30
2023-03-04T16:51:21.899Z,2.00
2023-03-04T16:56:24.877Z,3.33
2023-03-04T17:01:30.218Z,2.63
2023-03-04T17:06:34.314Z,2.80
2023-03-04T17:11:37.338Z,1.27
2023-03-04T17:16:41.434Z,4.40
2023-03-04T17:21:44.319Z,2.53
2023-03-04T17:26:47.019Z,2.13
2023-03-04T17:31:51.132Z,2.80
2023-03-04T17:36:54.147Z,2.93
2023-03-04T17:42:01.859Z,3.83
2023-03-04T17:47:06.624Z,4.83
2023-03-04T17:52:09.342Z,5.00
2023-03-04T17:57:12.095Z,1.47
2023-03-04T18:02:17.115Z,4.37
2023-03-04T18:07:19.914Z,1.90
2023-03-04T18:12:22.744Z,6.97
2023-03-04T18:17:27.684Z,4.37
2023-03-04T18:22:31.118Z,3.83
2023-03-04T18:27:34.580Z,2.97
2023-03-04T18:32:51.316Z,1.50
2023-03-04T18:37:54.828Z,5.10
2023-03-04T18:43:00.113Z,2.03
2023-03-04T18:48:04.584Z,4.67
2023-03-04T18:53:07.341Z,5.83
2023-03-04T18:58:10.088Z,2.47
2023-03-04T19:03:14.833Z,3.57
2023-03-04T19:08:17.609Z,5.63
2023-03-04T19:13:22.593Z,5.67
2023-03-04T19:18:27.204Z,6.50
2023-03-04T19:23:30.327Z,7.33
2023-03-04T19:28:33.063Z,6.30
2023-03-04T19:33:38.607Z,5.53
2023-03-04T19:38:41.380Z,4.97
2023-03-04T19:43:45.999Z,7.00
2023-03-04T19:48:50.402Z,7.17
2023-03-04T19:53:54.356Z,4.93
2023-03-04T19:58:57.775Z,3.70
2023-03-04T20:04:03.732Z,4.33
2023-03-04T20:09:07.225Z,4.30
2023-03-04T20:14:09.986Z,4.13
2023-03-04T20:19:14.009Z,4.73
2023-03-04T20:24:18.938Z,5.20
2023-03-04T20:29:21.984Z,7.23
2023-03-04T20:34:26.991Z,3.47
2023-03-04T20:39:30.328Z,4.90
2023-03-04T20:44:33.262Z,4.60
2023-03-04T20:49:37.655Z,6.90
2023-03-04T20:54:40.489Z,7.93
2023-03-04T20:59:43.383Z,3.17
2023-03-04T21:04:47.529Z,5.33
2023-03-04T21:09:50.278Z,3.97
2023-03-04T21:14:53.041Z,4.90
2023-03-04T21:19:57.209Z,6.60
2023-03-04T21:25:00.001Z,5.47
2023-03-04T21:30:02.849Z,6.20
2023-03-04T21:35:07.851Z,5.43
2023-03-04T21:40:12.061Z,5.83
2023-03-04T21:45:14.758Z,6.93
2023-03-04T21:50:19.303Z,5.40
2023-03-04T21:55:22.316Z,2.33
2023-03-04T22:00:25.102Z,5.57
2023-03-04T22:05:29.271Z,5.50
2023-03-04T22:10:39.664Z,6.83
2023-03-04T22:15:44.190Z,7.70
2023-03-04T22:20:48.320Z,5.50
2023-03-04T22:25:51.029Z,6.87
2023-03-04T22:30:53.867Z,8.57
2023-03-04T22:35:57.979Z,6.10
2023-03-04T22:41:00.797Z,8.43
2023-03-04T22:46:12.495Z,7.10
2023-03-04T22:51:16.756Z,2.97
2023-03-04T22:56:20.204Z,5.80
2023-03-04T23:01:23.060Z,5.53
2023-03-04T23:06:30.080Z,8.80
2023-03-04T23:11:35.225Z,3.73
2023-03-04T23:16:42.400Z,4.07
2023-03-04T23:21:46.633Z,9.07
2023-03-04T23:26:49.537Z,3.70
2023-03-04T23:31:52.245Z,4.20
2023-03-04T23:36:56.308Z,6.63
2023-03-04T23:41:59.178Z,3.80
2023-03-04T23:47:02.396Z,3.80
2023-03-04T23:52:07.162Z,3.13
2023-03-04T23:57:09.889Z,5.10
